createdAt,value
2023-02-22T00:01:35.613Z,99.90
2023-02-22T00:04:05.479Z,99.90
2023-02-22T00:06:32.419Z,99.90
2023-02-22T00:08:59.566Z,99.90
2023-02-22T00:11:26.365Z,99.90
2023-02-22T00:13:56.384Z,99.90
2023-02-22T00:16:24.895Z,99.90
2023-02-22T00:18:52.420Z,99.90
2023-02-22T00:21:20.066Z,99.90
2023-02-22T00:23:48.430Z,99.90
2023-02-22T00:26:20.974Z,99.90
2023-02-22T00:28:50.897Z,99.90
2023-02-22T00:31:19.120Z,99.90
2023-02-22T00:33:46.081Z,99.90
2023-02-22T00:36:13.488Z,99.90
2023-02-22T00:38:41.544Z,99.90
2023-02-22T00:41:08.797Z,99.90
2023-02-22T00:43:35.395Z,99.90
2023-02-22T00:46:02.271Z,99.90
2023-02-22T00:48:28.786Z,99.90
2023-02-22T00:50:55.468Z,99.90
2023-02-22T00:53:24.814Z,99.90
2023-02-22T00:55:51.938Z,99.90
2023-02-22T00:58:18.838Z,99.90
2023-02-22T01:00:45.795Z,99.90
2023-02-22T01:03:22.517Z,99.90
2023-02-22T01:05:49.261Z,99.90
2023-02-22T01:08:17.148Z,99.90
2023-02-22T01:10:44.088Z,99.90
2023-02-22T01:13:11.857Z,99.90
2023-02-22T01:15:41.699Z,99.90
2023-02-22T01:18:08.733Z,99.90
2023-02-22T01:20:36.524Z,99.90
2023-02-22T01:23:07.069Z,99.90
2023-02-22T01:25:35.128Z,99.90
2023-02-22T01:28:04.945Z,99.90
2023-02-22T01:30:34.793Z,99.90
2023-02-22T01:33:04.382Z,99.90
2023-02-22T01:35:35.217Z,99.90
2023-02-22T01:38:01.981Z,99.90
2023-02-22T01:40:35.522Z,99.90
2023-02-22T01:43:14.953Z,99.90
2023-02-22T01:46:05.841Z,99.90
2023-02-22T01:48:48.809Z,99.90
2023-02-22T01:51:36.932Z,99.90
2023-02-22T01:55:04.324Z,99.90
2023-02-22T01:57:37.508Z,99.90
2023-02-22T02:00:20.276Z,99.90
2023-02-22T02:02:58.169Z,99.90
2023-02-22T02:05:27.293Z,99.90
2023-02-22T02:07:54.134Z,99.90
2023-02-22T02:10:23.531Z,99.90
2023-02-22T02:12:52.989Z,99.90
2023-02-22T02:15:32.955Z,99.90
2023-02-22T02:18:09.242Z,99.90
2023-02-22T02:24:58.393Z,99.90
2023-02-22T02:28:14.193Z,99.90
2023-02-22T02:32:51.329Z,99.90
2023-02-22T02:37:21.030Z,99.90
2023-02-22T02:40:20.283Z,99.90
2023-02-22T02:43:54.443Z,99.90
2023-02-22T02:46:31.624Z,99.90
2023-02-22T02:49:06.118Z,99.90
2023-02-22T02:51:41.017Z,99.90
2023-02-22T02:54:09.711Z,99.90
2023-02-22T02:56:36.448Z,99.90
2023-02-22T02:59:02.920Z,99.90
2023-02-22T03:09:08.208Z,99.90
2023-02-22T03:12:09.709Z,99.90
2023-02-22T03:16:29.441Z,99.90
2023-02-22T03:21:21.073Z,99.90
2023-02-22T03:24:11.062Z,99.90
2023-02-22T03:27:02.087Z,99.90
2023-02-22T03:29:34.774Z,99.90
2023-02-22T03:32:08.329Z,99.90
2023-02-22T03:34:43.110Z,99.90
2023-02-22T03:37:22.613Z,99.90
2023-02-22T03:39:54.163Z,99.90
2023-02-22T03:42:33.040Z,99.90
2023-02-22T03:45:04.301Z,99.90
2023-02-22T03:47:41.390Z,99.90
2023-02-22T03:50:16.513Z,99.90
2023-02-22T03:52:46.689Z,99.90
2023-02-22T03:55:16.929Z,99.90
2023-02-22T03:57:57.919Z,99.90
2023-02-22T04:00:29.316Z,99.90
2023-02-22T04:02:56.058Z,99.90
2023-02-22T04:05:24.258Z,99.90
2023-02-22T04:07:55.255Z,99.90
2023-02-22T04:10:23.873Z,99.90
2023-02-22T04:12:50.837Z,99.90
2023-02-22T04:15:23.226Z,99.90
2023-02-22T04:17:51.463Z,99.90
2023-02-22T04:20:19.090Z,99.90
2023-02-22T04:22:46.653Z,99.90
2023-02-22T04:25:14.263Z,99.90
2023-02-22T04:27:40.749Z,99.90
2023-02-22T04:30:08.380Z,99.90
2023-02-22T04:32:34.865Z,99.90
2023-02-22T04:35:01.435Z,99.90
2023-02-22T04:37:27.901Z,99.90
2023-02-22T04:39:54.467Z,99.90
2023-02-22T04:42:21.007Z,99.90
2023-02-22T04:44:47.824Z,99.90
2023-02-22T04:47:14.300Z,99.90
2023-02-22T04:49:40.782Z,99.90
2023-02-22T04:52:07.266Z,99.90
2023-02-22T04:54:33.759Z,99.90
2023-02-22T04:57:00.231Z,99.90
2023-02-22T04:59:26.701Z,99.90
2023-02-22T05:01:53.426Z,99.90
2023-02-22T05:04:20.899Z,99.90
2023-02-22T05:06:47.844Z,99.90
2023-02-22T05:09:14.604Z,99.90
2023-02-22T05:11:41.111Z,99.90
2023-02-22T05:14:07.561Z,99.90
2023-02-22T05:16:34.030Z,99.90
2023-02-22T05:19:00.644Z,99.90
2023-02-22T05:21:27.130Z,99.90
2023-02-22T05:23:53.615Z,99.90
2023-02-22T05:26:20.073Z,99.90
2023-02-22T05:28:46.636Z,99.90
2023-02-22T05:31:13.818Z,99.90
2023-02-22T05:33:40.334Z,99.90
2023-02-22T05:36:07.871Z,99.90
2023-02-22T05:38:35.696Z,99.90
2023-02-22T05:41:02.203Z,99.90
2023-02-22T05:43:28.658Z,99.90
2023-02-22T05:45:55.110Z,99.90
2023-02-22T05:48:22.765Z,99.90
2023-02-22T05:50:49.255Z,99.90
2023-02-22T05:53:15.730Z,99.90
2023-02-22T05:55:42.185Z,99.90
2023-02-22T05:58:08.670Z,99.90
2023-02-22T06:00:35.184Z,99.90
2023-02-22T06:03:08.393Z,99.90
2023-02-22T06:05:36.228Z,99.90
2023-02-22T06:08:05.074Z,99.90
2023-02-22T06:10:31.846Z,99.90
2023-02-22T06:13:00.693Z,99.90
2023-02-22T06:15:28.405Z,99.90
2023-02-22T06:17:57.122Z,99.90
2023-02-22T06:20:26.201Z,99.90
2023-02-22T06:22:55.871Z,99.90
2023-02-22T06:25:27.281Z,99.90
2023-02-22T06:27:53.800Z,99.90
2023-02-22T06:30:24.215Z,99.90
2023-02-22T06:32:50.750Z,99.90
2023-02-22T06:35:17.765Z,99.90
2023-02-22T06:37:44.577Z,99.90
2023-02-22T06:40:12.389Z,99.90
2023-02-22T06:42:39.542Z,99.90
2023-02-22T06:45:07.145Z,99.90
2023-02-22T06:47:37.921Z,99.90
2023-02-22T06:50:04.812Z,99.90
2023-02-22T06:52:31.304Z,99.90
2023-02-22T06:54:57.770Z,99.90
2023-02-22T06:57:24.454Z,99.90
2023-02-22T06:59:51.003Z,99.90
2023-02-22T07:02:17.450Z,99.90
2023-02-22T07:04:45.283Z,99.90
2023-02-22T07:07:11.746Z,99.90
2023-02-22T07:09:38.220Z,99.90
2023-02-22T07:12:04.846Z,99.90
2023-02-22T07:14:31.309Z,99.90
2023-02-22T07:16:57.776Z,99.90
2023-02-22T07:19:24.272Z,99.90
2023-02-22T07:21:56.209Z,99.90
2023-02-22T07:24:22.666Z,99.90
2023-02-22T07:26:49.145Z,99.90
2023-02-22T07:29:15.594Z,99.90
2023-02-22T07:31:42.354Z,99.90
2023-02-22T07:34:08.819Z,99.90
2023-02-22T07:36:35.270Z,99.90
2023-02-22T07:39:01.754Z,99.90
2023-02-22T07:41:28.231Z,99.90
2023-02-22T07:43:54.709Z,99.90
2023-02-22T07:46:21.171Z,99.90
2023-02-22T07:48:50.540Z,99.90
2023-02-22T07:51:19.911Z,99.90
2023-02-22T07:53:47.840Z,99.90
2023-02-22T07:56:14.947Z,99.90
2023-02-22T07:58:41.420Z,99.90
2023-02-22T08:01:08.154Z,99.90
2023-02-22T08:03:37.176Z,99.90
2023-02-22T08:06:06.682Z,99.90
2023-02-22T08:08:33.726Z,99.90
2023-02-22T08:11:00.252Z,99.90
2023-02-22T08:13:26.752Z,99.90
2023-02-22T08:15:53.794Z,99.90
2023-02-22T08:18:22.316Z,99.90
2023-02-22T08:20:51.273Z,99.90
2023-02-22T08:23:21.747Z,99.90
2023-02-22T08:25:48.378Z,99.90
2023-02-22T08:28:19.155Z,99.90
2023-02-22T08:30:45.739Z,99.90
2023-02-22T08:33:18.554Z,99.90
2023-02-22T08:35:50.859Z,99.90
2023-02-22T08:38:29.318Z,99.90
2023-02-22T08:40:55.866Z,99.90
2023-02-22T08:43:23.007Z,99.90
2023-02-22T08:45:51.002Z,99.90
2023-02-22T08:48:19.462Z,99.90
2023-02-22T08:50:46.216Z,99.90
2023-02-22T08:53:15.450Z,99.90
2023-02-22T08:55:42.248Z,99.80
2023-02-22T08:58:09.204Z,99.40
2023-02-22T09:00:37.978Z,99.00
2023-02-22T09:03:08.677Z,98.70
2023-02-22T09:05:35.181Z,98.00
2023-02-22T09:08:01.947Z,97.70
2023-02-22T09:10:33.344Z,97.40
2023-02-22T09:13:00.378Z,97.30
2023-02-22T09:15:27.878Z,96.70
2023-02-22T09:17:54.935Z,96.60
2023-02-22T09:20:23.393Z,96.20
2023-02-22T09:22:50.488Z,96.30
2023-02-22T09:25:19.776Z,96.30
2023-02-22T09:27:53.564Z,96.20
2023-02-22T09:30:34.272Z,96.80
2023-02-22T09:33:11.511Z,96.50
2023-02-22T09:35:45.473Z,97.00
2023-02-22T09:38:19.747Z,97.00
2023-02-22T09:40:51.509Z,96.90
2023-02-22T09:45:12.069Z,96.80
2023-02-22T09:47:48.967Z,96.90
2023-02-22T09:50:25.561Z,96.60
2023-02-22T09:53:05.098Z,96.50
2023-02-22T09:55:40.430Z,96.60
2023-02-22T09:58:32.661Z,96.30
2023-02-22T10:01:34.230Z,96.50
2023-02-22T10:07:24.240Z,96.20
2023-02-22T10:09:55.769Z,95.60
2023-02-22T10:15:34.278Z,95.20
2023-02-22T10:19:57.254Z,94.90
2023-02-22T10:26:37.052Z,95.20
2023-02-22T10:29:39.903Z,95.00
2023-02-22T10:32:18.259Z,93.90
2023-02-22T10:34:53.143Z,94.30
2023-02-22T10:37:30.935Z,94.30
2023-02-22T10:40:22.319Z,94.10
2023-02-22T10:42:49.947Z,93.90
2023-02-22T10:45:32.846Z,93.80
2023-02-22T10:48:10.718Z,93.80
2023-02-22T10:50:41.617Z,94.10
2023-02-22T10:53:10.257Z,94.10
2023-02-22T10:56:21.923Z,93.60
2023-02-22T10:59:05.991Z,93.10
2023-02-22T11:01:40.127Z,93.00
2023-02-22T11:04:22.687Z,92.80
2023-02-22T11:09:00.121Z,92.70
2023-02-22T11:11:28.460Z,92.60
2023-02-22T11:13:56.759Z,92.80
2023-02-22T11:17:33.805Z,92.40
2023-02-22T11:20:00.417Z,91.90
2023-02-22T11:22:46.421Z,91.80
2023-02-22T11:25:25.622Z,91.90
2023-02-22T11:27:53.622Z,92.00
2023-02-22T11:30:32.343Z,91.90
2023-02-22T11:33:24.981Z,91.70
2023-02-22T11:36:04.051Z,91.70
2023-02-22T11:38:36.895Z,91.40
2023-02-22T11:41:26.956Z,91.00
2023-02-22T11:43:56.152Z,90.50
2023-02-22T11:46:32.804Z,90.90
2023-02-22T11:49:10.777Z,91.00
2023-02-22T11:53:48.944Z,91.30
2023-02-22T11:56:39.263Z,90.80
2023-02-22T12:00:57.906Z,90.80
2023-02-22T12:04:06.462Z,90.50
2023-02-22T12:09:13.201Z,90.30
2023-02-22T12:12:07.157Z,90.20
2023-02-22T12:17:00.329Z,90.00
2023-02-22T12:19:50.266Z,90.00
2023-02-22T12:22:35.497Z,90.50
2023-02-22T12:25:26.338Z,90.40
2023-02-22T12:27:59.766Z,90.30
2023-02-22T12:30:37.682Z,90.20
2023-02-22T12:33:20.394Z,90.10
2023-02-22T12:35:58.252Z,90.10
2023-02-22T12:38:38.903Z,90.00
2023-02-22T12:42:17.384Z,90.30
2023-02-22T12:44:53.743Z,90.00
2023-02-22T12:47:36.221Z,89.90
2023-02-22T12:50:28.286Z,89.40
2023-02-22T12:53:25.053Z,89.50
2023-02-22T12:56:00.405Z,89.70
2023-02-22T12:58:49.022Z,88.90
2023-02-22T13:01:25.172Z,89.10
2023-02-22T13:03:55.104Z,89.00
2023-02-22T13:08:43.010Z,89.20
2023-02-22T13:13:34.995Z,89.50
2023-02-22T13:17:51.558Z,89.00
2023-02-22T13:20:40.545Z,89.70
2023-02-22T13:25:16.935Z,88.80
2023-02-22T13:29:27.931Z,88.90
2023-02-22T13:34:45.277Z,88.70
2023-02-22T13:39:03.151Z,88.70
2023-02-22T13:43:42.571Z,88.20
2023-02-22T13:50:55.324Z,88.10
2023-02-22T13:53:29.741Z,88.50
2023-02-22T13:55:59.971Z,88.60
2023-02-22T13:58:27.068Z,88.50
2023-02-22T14:00:58.358Z,89.20
2023-02-22T14:03:40.147Z,89.60
2023-02-22T14:06:37.303Z,89.40
2023-02-22T14:09:13.953Z,89.00
2023-02-22T14:11:42.347Z,90.00
2023-02-22T14:14:16.440Z,89.70
2023-02-22T14:16:43.237Z,90.10
2023-02-22T14:19:22.747Z,90.10
2023-02-22T14:22:05.115Z,90.00
2023-02-22T14:24:47.334Z,90.20
2023-02-22T14:27:16.793Z,90.30
2023-02-22T14:29:56.817Z,90.30
2023-02-22T14:32:34.793Z,90.40
2023-02-22T14:35:26.543Z,90.20
2023-02-22T14:38:00.506Z,90.60
2023-02-22T14:40:35.651Z,90.50
2023-02-22T14:43:23.809Z,90.50
2023-02-22T14:45:59.497Z,90.30
2023-02-22T14:48:41.983Z,90.50
2023-02-22T14:51:40.908Z,90.60
2023-02-22T14:54:26.362Z,90.40
2023-02-22T14:57:18.174Z,90.70
2023-02-22T15:00:21.964Z,90.80
2023-02-22T15:02:56.449Z,90.70
2023-02-22T15:05:22.993Z,90.70
2023-02-22T15:08:27.535Z,91.00
2023-02-22T15:10:54.161Z,91.00
2023-02-22T15:13:27.151Z,90.70
2023-02-22T15:16:03.764Z,90.70
2023-02-22T15:18:45.864Z,90.80
2023-02-22T15:21:16.535Z,91.00
2023-02-22T15:23:50.634Z,90.70
2023-02-22T15:27:01.056Z,90.60
2023-02-22T15:29:43.658Z,90.50
2023-02-22T15:32:41.477Z,90.70
2023-02-22T15:35:44.722Z,90.70
2023-02-22T15:38:21.760Z,90.60
2023-02-22T15:41:01.809Z,90.40
2023-02-22T15:43:29.179Z,90.70
2023-02-22T15:45:58.179Z,90.80
2023-02-22T15:48:27.789Z,90.90
2023-02-22T15:51:13.820Z,90.90
2023-02-22T15:53:48.360Z,90.90
2023-02-22T15:56:24.233Z,90.80
2023-02-22T15:58:58.181Z,91.00
2023-02-22T16:01:26.350Z,91.10
2023-02-22T16:03:58.673Z,91.50
2023-02-22T16:07:15.972Z,91.40
2023-02-22T16:09:50.832Z,91.30
2023-02-22T16:12:27.671Z,91.20
2023-02-22T16:14:55.688Z,91.90
2023-02-22T16:17:35.055Z,92.60
2023-02-22T16:22:40.517Z,92.60
2023-02-22T16:25:39.908Z,92.70
2023-02-22T16:28:34.703Z,93.50
2023-02-22T16:31:02.017Z,94.00
2023-02-22T16:33:33.028Z,94.10
2023-02-22T16:36:05.185Z,94.40
2023-02-22T16:38:32.976Z,95.00
2023-02-22T16:40:59.740Z,95.00
2023-02-22T16:43:33.504Z,95.10
2023-02-22T16:46:02.179Z,95.70
2023-02-22T16:48:37.544Z,95.90
2023-02-22T16:51:22.184Z,95.90
2023-02-22T16:53:49.993Z,96.00
2023-02-22T16:56:20.186Z,96.10
2023-02-22T16:58:49.970Z,96.10
2023-02-22T17:01:18.185Z,96.50
2023-02-22T17:03:44.860Z,96.90
2023-02-22T17:06:11.858Z,97.20
2023-02-22T17:08:41.906Z,97.50
2023-02-22T17:11:12.396Z,97.80
2023-02-22T17:13:40.153Z,98.00
2023-02-22T17:16:12.580Z,98.30
2023-02-22T17:18:39.103Z,98.70
2023-02-22T17:21:06.237Z,99.60
2023-02-22T17:23:32.854Z,99.80
2023-02-22T17:26:03.019Z,99.70
2023-02-22T17:28:31.442Z,99.80
2023-02-22T17:31:00.502Z,99.90
2023-02-22T17:33:32.081Z,99.90
2023-02-22T17:36:04.184Z,99.90
2023-02-22T17:38:31.479Z,99.70
2023-02-22T17:41:00.504Z,99.90
2023-02-22T17:43:27.260Z,99.90
2023-02-22T17:45:54.536Z,99.90
2023-02-22T17:48:23.918Z,99.90
2023-02-22T17:50:52.060Z,99.30
2023-02-22T17:53:21.815Z,99.90
2023-02-22T17:55:48.977Z,99.90
2023-02-22T17:58:15.957Z,99.90
2023-02-22T18:00:47.930Z,99.90
2023-02-22T18:03:24.348Z,99.90
2023-02-22T18:05:56.272Z,99.90
2023-02-22T18:08:25.041Z,99.90
2023-02-22T18:10:55.538Z,99.90
2023-02-22T18:13:25.838Z,99.90
2023-02-22T18:15:53.100Z,99.90
2023-02-22T18:18:21.377Z,99.90
2023-02-22T18:20:58.550Z,99.90
2023-02-22T18:23:27.603Z,99.90
2023-02-22T18:26:09.694Z,99.90
2023-02-22T18:28:38.060Z,99.90
2023-02-22T18:31:13.812Z,99.90
2023-02-22T18:33:48.591Z,99.90
2023-02-22T18:36:16.720Z,99.90
2023-02-22T18:38:43.960Z,99.90
2023-02-22T18:41:15.233Z,99.90
2023-02-22T18:43:42.566Z,99.90
2023-02-22T18:46:21.614Z,99.90
2023-02-22T18:48:53.292Z,99.90
2023-02-22T18:51:20.081Z,99.90
2023-02-22T18:53:47.547Z,99.90
2023-02-22T18:56:20.824Z,99.90
2023-02-22T18:58:51.665Z,99.90
2023-02-22T19:01:18.776Z,99.90
2023-02-22T19:03:48.454Z,99.90
2023-02-22T19:06:17.868Z,99.90
2023-02-22T19:08:46.323Z,99.90
2023-02-22T19:11:21.362Z,99.90
2023-02-22T19:13:51.837Z,99.90
2023-02-22T19:16:21.036Z,99.90
2023-02-22T19:18:51.463Z,99.90
2023-02-22T19:21:19.561Z,99.90
2023-02-22T19:23:47.239Z,99.90
2023-02-22T19:26:18.087Z,99.90
2023-02-22T19:28:46.422Z,99.90
2023-02-22T19:31:32.861Z,99.90
2023-02-22T19:34:10.680Z,99.90
2023-02-22T19:36:46.158Z,99.90
2023-02-22T19:39:19.530Z,99.90
2023-02-22T19:41:46.604Z,99.90
2023-02-22T19:44:13.443Z,99.90
2023-02-22T19:46:40.351Z,99.90
2023-02-22T19:49:07.048Z,99.90
2023-02-22T19:51:33.831Z,99.90
2023-02-22T19:54:03.540Z,99.90
2023-02-22T19:56:31.489Z,99.90
2023-02-22T19:59:12.692Z,99.90
2023-02-22T20:01:43.307Z,99.90
2023-02-22T20:04:17.248Z,99.90
2023-02-22T20:06:45.900Z,99.90
2023-02-22T20:09:29.025Z,99.90
2023-02-22T20:11:56.077Z,99.90
2023-02-22T20:14:27.580Z,99.90
2023-02-22T20:16:55.753Z,99.90
2023-02-22T20:19:23.598Z,99.90
2023-02-22T20:21:51.615Z,99.90
2023-02-22T20:24:18.492Z,99.90
2023-02-22T20:26:46.395Z,99.90
2023-02-22T20:29:14.241Z,99.90
2023-02-22T20:31:43.066Z,99.90
2023-02-22T20:34:10.789Z,99.90
2023-02-22T20:36:41.271Z,99.90
2023-02-22T20:39:12.548Z,99.90
2023-02-22T20:41:42.419Z,99.90
2023-02-22T20:44:13.118Z,99.90
2023-02-22T20:46:39.821Z,99.90
2023-02-22T20:49:10.874Z,99.90
2023-02-22T20:51:41.219Z,99.90
2023-02-22T20:54:10.787Z,99.90
2023-02-22T20:56:41.045Z,99.90
2023-02-22T20:59:10.084Z,99.90
2023-02-22T21:01:36.615Z,99.90
2023-02-22T21:04:06.550Z,99.90
2023-02-22T21:06:34.855Z,99.90
2023-02-22T21:09:04.317Z,99.90
2023-02-22T21:11:31.316Z,99.90
2023-02-22T21:13:59.411Z,99.90
2023-02-22T21:16:30.829Z,99.90
2023-02-22T21:19:01.715Z,99.90
2023-02-22T21:21:30.166Z,99.90
2023-02-22T21:24:01.443Z,99.90
2023-02-22T21:26:31.876Z,99.90
2023-02-22T21:29:05.065Z,99.90
2023-02-22T21:31:33.387Z,99.90
2023-02-22T21:34:01.141Z,99.90
2023-02-22T21:36:28.572Z,99.90
2023-02-22T21:39:00.953Z,99.90
2023-02-22T21:41:30.373Z,99.90
2023-02-22T21:43:58.663Z,99.90
2023-02-22T21:46:28.352Z,99.90
2023-02-22T21:48:57.850Z,99.90
2023-02-22T21:51:30.715Z,99.90
2023-02-22T21:54:00.257Z,99.90
2023-02-22T21:56:29.415Z,99.90
2023-02-22T21:59:10.876Z,99.90
2023-02-22T22:01:46.025Z,99.90
2023-02-22T22:04:19.355Z,99.90
2023-02-22T22:06:52.230Z,99.90
2023-02-22T22:09:20.988Z,99.90
2023-02-22T22:11:51.216Z,99.90
2023-02-22T22:14:19.530Z,99.90
2023-02-22T22:16:49.202Z,99.90
2023-02-22T22:19:16.424Z,99.90
2023-02-22T22:21:42.915Z,99.90
2023-02-22T22:24:10.520Z,99.90
2023-02-22T22:26:37.889Z,99.90
2023-02-22T22:29:08.581Z,99.90
2023-02-22T22:31:35.638Z,99.90
2023-02-22T22:34:02.150Z,99.90
2023-02-22T22:36:28.610Z,99.90
2023-02-22T22:38:58.285Z,99.90
2023-02-22T22:41:27.252Z,99.90
2023-02-22T22:43:53.932Z,99.90
2023-02-22T22:46:20.736Z,99.90
2023-02-22T22:48:47.495Z,99.90
2023-02-22T22:51:21.340Z,99.90
2023-02-22T22:53:49.968Z,99.90
2023-02-22T22:56:25.559Z,99.90
2023-02-22T22:58:55.323Z,99.90
2023-02-22T23:01:33.178Z,99.90
2023-02-22T23:04:02.910Z,99.90
2023-02-22T23:06:34.159Z,99.90
2023-02-22T23:09:17.647Z,99.90
2023-02-22T23:11:52.400Z,99.90
2023-02-22T23:14:31.495Z,99.90
2023-02-22T23:17:02.488Z,99.90
2023-02-22T23:19:34.378Z,99.90
2023-02-22T23:22:04.370Z,99.90
2023-02-22T23:24:35.374Z,99.90
2023-02-22T23:27:06.375Z,99.90
2023-02-22T23:29:37.758Z,99.90
2023-02-22T23:32:07.911Z,99.90
2023-02-22T23:34:35.984Z,99.90
2023-02-22T23:37:02.538Z,99.90
2023-02-22T23:39:29.094Z,99.90
2023-02-22T23:42:00.553Z,99.90
2023-02-22T23:44:28.290Z,99.90
2023-02-22T23:46:55.009Z,99.90
2023-02-22T23:49:37.178Z,99.90
2023-02-22T23:52:08.359Z,99.90
2023-02-22T23:54:39.398Z,99.90
2023-02-22T23:57:07.989Z,99.90
2023-02-22T23:59:34.909Z,99.90
